Time;durP1;ratioP1;P1;durP2;ratioP2;P2;SDS_P1;SDS_P2;PMS_P1;PMS_P2;Temp;Humidity;BMP_temperature;BMP_pressure;BME280_temperature;BME280_humidity;BME280_pressure;Samples;Min_cycle;Max_cycle;Signal;HPM_P1;HPM_P2
2023/04/05 00:01:31;;;;;;;22.10;11.38;;;;;;;2.21;78.96;102773.72;6108935;19;20031;-77
2023/04/05 00:03:36;;;;;;;21.92;11.45;;;;;;;2.16;77.86;102776.22;6104398;19;20107;-77
2023/04/05 00:05:41;;;;;;;25.15;11.48;;;;;;;2.14;78.01;102772.72;6103190;19;20006;-77
2023/04/05 00:07:47;;;;;;;20.67;10.23;;;;;;;2.14;78.19;102772.72;6104790;19;20030;-77
2023/04/05 00:09:51;;;;;;;19.52;9.73;;;;;;;2.15;79.07;102765.81;6082788;19;20098;-77
2023/04/05 00:11:56;;;;;;;22.02;11.68;;;;;;;2.18;79.14;102766.75;6105213;19;20035;-77
2023/04/05 00:14:02;;;;;;;21.45;11.40;;;;;;;2.14;79.22;102764.06;6105281;19;20014;-77
2023/04/05 00:16:13;;;;;;;25.77;12.25;;;;;;;2.09;78.71;102761.34;6085031;19;20003;-79
2023/04/05 00:18:23;;;;;;;19.85;9.82;;;;;;;2.08;79.54;102758.69;6082340;19;20078;-79
2023/04/05 00:20:28;;;;;;;20.85;11.90;;;;;;;2.03;78.51;102761.19;6081381;19;20361;-77
2023/04/05 00:22:34;;;;;;;29.48;12.00;;;;;;;2.03;78.76;102756.00;6099758;19;20010;-78
2023/04/05 00:24:42;;;;;;;23.55;10.90;;;;;;;2.04;79.47;102756.88;6103870;19;20074;-79
2023/04/05 00:26:47;;;;;;;26.33;12.18;;;;;;;2.11;80.83;102754.47;6079848;19;20397;-79
2023/04/05 00:28:55;;;;;;;23.88;11.35;;;;;;;2.12;80.02;102758.81;6078428;19;20119;-78
2023/04/05 00:31:00;;;;;;;26.38;12.95;;;;;;;2.14;81.04;102759.75;6104362;19;20019;-77
2023/04/05 00:33:08;;;;;;;21.10;10.88;;;;;;;2.12;80.08;102751.03;6107614;19;20010;-77
2023/04/05 00:35:12;;;;;;;24.02;11.70;;;;;;;2.09;79.97;102755.28;6096958;19;20019;-76
2023/04/05 00:37:19;;;;;;;21.67;12.07;;;;;;;2.05;80.11;102749.13;6103593;19;20009;-76
2023/04/05 00:39:24;;;;;;;23.50;11.27;;;;;;;2.03;80.44;102755.09;6108398;19;20016;-78
2023/04/05 00:41:28;;;;;;;23.92;11.23;;;;;;;1.92;80.38;102753.13;6102563;19;20359;-77
2023/04/05 00:43:34;;;;;;;21.88;11.50;;;;;;;1.91;80.61;102750.50;6102111;19;20109;-77
2023/04/05 00:45:42;;;;;;;22.17;10.32;;;;;;;1.86;81.43;102757.28;6104098;19;20362;-77
2023/04/05 00:47:48;;;;;;;22.98;10.02;;;;;;;1.84;80.35;102746.84;6110014;19;20364;-77
2023/04/05 00:49:55;;;;;;;21.02;10.65;;;;;;;1.82;79.94;102748.56;6107095;19;20010;-77
2023/04/05 00:52:00;;;;;;;20.75;10.70;;;;;;;1.82;80.69;102747.66;6106302;19;20021;-79
2023/04/05 00:54:05;;;;;;;26.33;11.75;;;;;;;1.84;82.01;102752.03;6104830;19;20127;-77
2023/04/05 00:56:12;;;;;;;27.60;11.70;;;;;;;1.84;80.80;102753.75;6112820;19;20064;-79
2023/04/05 00:58:20;;;;;;;24.38;11.25;;;;;;;1.84;80.92;102748.56;6112547;19;20396;-78
2023/04/05 01:00:28;;;;;;;25.77;10.57;;;;;;;1.80;80.53;102736.38;6110287;19;20030;-78
2023/04/05 01:05:04;;;;;;;28.85;11.02;;;;;;;1.82;81.38;102742.47;6119113;19;20062;-77
2023/04/05 01:07:15;;;;;;;20.23;9.95;;;;;;;1.79;81.38;102734.63;6121066;19;20006;-77
2023/04/05 01:09:43;;;;;;;18.23;9.25;;;;;;;1.74;80.84;102737.97;6120511;19;20009;-78
2023/04/05 01:11:50;;;;;;;20.77;10.82;;;;;;;1.71;80.88;102731.81;6122489;19;20015;-77
2023/04/05 01:14:00;;;;;;;20.00;10.77;;;;;;;1.65;81.02;102729.94;6104901;19;20011;-77
2023/04/05 01:16:05;;;;;;;21.52;9.85;;;;;;;1.66;81.52;102729.13;6121491;19;20444;-77
2023/04/05 01:18:13;;;;;;;23.25;11.85;;;;;;;1.61;82.41;102730.72;6128863;19;20007;-77
2023/04/05 01:20:24;;;;;;;34.20;11.32;;;;;;;1.59;82.39;102729.78;6124276;19;20022;-77
2023/04/05 01:23:17;;;;;;;22.80;10.48;;;;;;;1.52;81.39;102725.28;6120306;19;20011;-77
2023/04/05 01:25:59;;;;;;;21.83;10.70;;;;;;;1.50;81.77;102726.94;6085790;19;20011;-77
2023/04/05 01:28:24;;;;;;;23.52;10.50;;;;;;;1.51;83.37;102721.81;6107563;19;20365;-78
2023/04/05 01:30:38;;;;;;;24.30;10.98;;;;;;;1.49;82.57;102718.28;6107032;19;20070;-77
2023/04/05 01:32:55;;;;;;;18.85;9.85;;;;;;;1.46;82.05;102714.75;6105425;19;20007;-77
2023/04/05 01:35:11;;;;;;;22.88;10.82;;;;;;;1.42;81.82;102713.81;6098807;19;20002;-77
2023/04/05 01:37:19;;;;;;;21.15;10.20;;;;;;;1.37;82.01;102712.78;6103825;19;20003;-77
2023/04/05 01:39:26;;;;;;;25.67;10.95;;;;;;;1.28;82.51;102715.13;6099739;19;20010;-77
2023/04/05 01:41:31;;;;;;;20.88;11.48;;;;;;;1.25;83.57;102710.72;6103068;19;20011;-77
2023/04/05 01:43:36;;;;;;;24.40;10.45;;;;;;;1.20;83.21;102704.53;6104508;19;20003;-77
2023/04/05 01:45:45;;;;;;;20.75;11.25;;;;;;;1.16;83.67;102712.16;6102112;19;20010;-77
2023/04/05 01:47:50;;;;;;;27.13;11.35;;;;;;;1.12;82.73;102708.63;6102317;19;20482;-77
2023/04/05 01:49:55;;;;;;;22.98;10.48;;;;;;;1.13;83.96;102709.50;6101346;19;20010;-77
2023/04/05 01:52:00;;;;;;;24.35;10.55;;;;;;;1.10;83.08;102705.09;6101113;19;20006;-77
2023/04/05 01:54:05;;;;;;;25.67;11.10;;;;;;;1.09;83.18;102701.66;6077161;19;20014;-77
2023/04/05 01:56:12;;;;;;;28.35;11.57;;;;;;;1.07;83.43;102702.44;6103112;19;20597;-78
2023/04/05 01:58:20;;;;;;;23.75;9.82;;;;;;;1.08;83.29;102701.63;6101652;19;20353;-78
2023/04/05 02:00:26;;;;;;;22.63;9.68;;;;;;;1.08;83.19;102701.63;6101003;19;20003;-78
2023/04/05 02:02:34;;;;;;;28.13;12.60;;;;;;;1.12;84.34;102689.63;6100984;19;20011;-78
2023/04/05 02:04:39;;;;;;;22.95;11.77;;;;;;;1.13;84.60;102687.06;6103059;19;20006;-78
2023/04/05 02:06:44;;;;;;;21.88;10.27;;;;;;;1.10;83.82;102684.41;6100399;19;20060;-78
2023/04/05 02:08:49;;;;;;;28.80;11.88;;;;;;;1.12;85.16;102681.88;6101474;19;20010;-78
2023/04/05 02:10:56;;;;;;;23.00;11.43;;;;;;;1.09;84.08;102677.47;6102554;19;20383;-78
2023/04/05 02:13:03;;;;;;;23.25;11.60;;;;;;;1.06;84.37;102677.41;6098833;19;20020;-79
2023/04/05 02:15:09;;;;;;;21.15;11.23;;;;;;;1.04;84.01;102668.69;6101903;19;20024;-77
2023/04/05 02:17:17;;;;;;;22.77;10.15;;;;;;;1.04;84.16;102669.56;6105718;19;20007;-77
2023/04/05 02:19:25;;;;;;;23.95;11.07;;;;;;;1.02;84.81;102666.06;6094892;19;20007;-77
2023/04/05 02:21:30;;;;;;;23.67;10.95;;;;;;;0.99;84.09;102663.38;6103142;19;20359;-78
2023/04/05 02:23:36;;;;;;;22.92;11.57;;;;;;;0.98;83.93;102664.22;6101344;19;20034;-77
2023/04/05 02:25:41;;;;;;;24.85;11.90;;;;;;;1.04;84.62;102660.94;6102807;19;20013;-77
2023/04/05 02:27:47;;;;;;;24.30;11.38;;;;;;;1.04;84.75;102658.34;6099420;19;20007;-76
2023/04/05 02:29:54;;;;;;;20.08;10.30;;;;;;;1.02;84.39;102657.41;6103409;19;20018;-76
2023/04/05 02:31:59;;;;;;;18.73;9.68;;;;;;;0.99;84.09;102654.75;6102032;19;20705;-78
2023/04/05 02:34:08;;;;;;;24.27;10.80;;;;;;;0.95;84.09;102658.06;6105217;19;20439;-77
2023/04/05 02:36:16;;;;;;;26.80;12.40;;;;;;;0.98;85.42;102660.78;6101344;19;20126;-77
2023/04/05 02:38:20;;;;;;;29.55;11.95;;;;;;;0.97;84.86;102661.59;6100424;19;20660;-77
2023/04/05 02:40:25;;;;;;;23.42;11.93;;;;;;;0.90;84.48;102657.09;6099211;19;20003;-77
2023/04/05 02:42:31;;;;;;;27.25;11.80;;;;;;;0.83;85.32;102662.06;6103665;19;20006;-77
2023/04/05 02:44:36;;;;;;;26.27;11.77;;;;;;;0.79;84.29;102669.69;6100578;19;20049;-77
2023/04/05 02:50:39;;;;;;;23.88;10.70;;;;;;;0.63;85.20;102663.19;5934782;19;20044;-73
2023/04/05 02:55:55;;;;;;;21.90;11.32;;;;;;;0.54;86.23;102656.03;6018841;19;20489;-77
2023/04/05 02:58:02;;;;;;;29.35;14.10;;;;;;;0.51;85.91;102649.91;6103318;19;20073;-77
2023/04/05 03:00:10;;;;;;;29.20;11.43;;;;;;;0.51;86.42;102644.72;6104021;19;20011;-77
2023/04/05 03:02:15;;;;;;;24.40;11.40;;;;;;;0.42;85.76;102648.81;6105963;19;20030;-77
2023/04/05 03:04:20;;;;;;;18.45;10.82;;;;;;;0.38;85.79;102639.19;6104124;19;20031;-77
2023/04/05 03:06:25;;;;;;;21.17;11.45;;;;;;;0.36;85.58;102639.97;6103990;19;20006;-77
2023/04/05 03:08:32;;;;;;;24.13;11.25;;;;;;;0.38;86.03;102638.31;6103759;19;19998;-78
2023/04/05 03:10:43;;;;;;;25.67;11.30;;;;;;;0.35;85.77;102643.41;6105752;19;20006;-77
2023/04/05 03:12:50;;;;;;;20.58;11.27;;;;;;;0.28;85.73;102637.16;6105457;19;20530;-78
2023/04/05 03:37:20;;;;;;;34.30;15.45;;;;;;;0.03;87.06;102651.03;6030288;19;20078;-74
2023/04/05 03:42:44;;;;;;;30.13;12.65;;;;;;;-0.04;86.28;102631.84;6069992;19;20022;-74
2023/04/05 03:45:04;;;;;;;35.67;13.45;;;;;;;-0.06;86.87;102635.22;6009101;19;20525;-77
2023/04/05 03:47:09;;;;;;;29.20;12.40;;;;;;;-0.07;87.70;102629.16;6105282;19;20021;-78
2023/04/05 03:52:21;;;;;;;34.63;13.57;;;;;;;-0.08;88.57;102616.19;5981204;19;20125;-74
2023/04/05 03:54:36;;;;;;;33.03;13.82;;;;;;;-0.14;88.19;102629.78;6106783;19;20007;-76
2023/04/05 03:56:41;;;;;;;29.77;12.45;;;;;;;-0.17;87.58;102621.94;6109338;19;20006;-78
2023/04/05 03:58:49;;;;;;;26.65;12.20;;;;;;;-0.19;87.30;102622.72;6111695;19;20007;-78
2023/04/05 04:00:55;;;;;;;28.23;13.10;;;;;;;-0.20;87.27;102627.00;6112007;19;20038;-78
2023/04/05 04:02:59;;;;;;;29.48;13.35;;;;;;;-0.20;88.01;102620.97;6114987;19;20013;-78
2023/04/05 04:05:05;;;;;;;30.65;13.73;;;;;;;-0.20;87.81;102626.16;6115101;19;20494;-78
2023/04/05 04:07:13;;;;;;;27.10;13.05;;;;;;;-0.21;87.74;102617.53;6118709;19;20062;-78
2023/04/05 04:09:18;;;;;;;29.33;13.07;;;;;;;-0.17;88.57;102624.53;6116672;19;20066;-77
2023/04/05 04:11:23;;;;;;;30.60;13.57;;;;;;;-0.20;87.79;102616.69;6119075;19;20112;-78
2023/04/05 04:13:30;;;;;;;25.98;12.55;;;;;;;-0.14;88.82;102627.22;6119824;19;20034;-78
2023/04/05 04:15:39;;;;;;;27.58;14.15;;;;;;;-0.15;87.44;102616.84;6125883;19;20006;-78
2023/04/05 04:17:45;;;;;;;27.05;12.00;;;;;;;-0.12;88.35;102622.97;6122953;19;20022;-77
2023/04/05 04:19:50;;;;;;;23.52;12.07;;;;;;;-0.16;87.46;102618.53;6119137;19;20019;-77
2023/04/05 04:21:55;;;;;;;24.08;10.57;;;;;;;-0.14;88.14;102619.44;6110445;19;20456;-78
2023/04/05 04:24:00;;;;;;;30.63;13.20;;;;;;;-0.14;87.88;102616.88;6104821;19;20014;-78
2023/04/05 04:26:05;;;;;;;27.35;12.60;;;;;;;-0.13;87.65;102613.47;6104720;19;20443;-78
2023/04/05 04:28:26;;;;;;;23.77;11.85;;;;;;;-0.12;87.47;102616.94;6053877;19;20006;-75
2023/04/05 04:33:07;;;;;;;28.42;11.30;;;;;;;-0.08;88.39;102622.25;6041857;19;20573;-75
2023/04/05 04:35:28;;;;;;;34.22;14.95;;;;;;;-0.14;88.85;102616.00;6060695;19;20010;-78
2023/04/05 04:37:36;;;;;;;27.13;14.10;;;;;;;-0.22;88.44;102618.34;6100459;19;20011;-78
2023/04/05 04:39:49;;;;;;;32.67;14.27;;;;;;;-0.22;88.99;102615.75;6096035;19;20058;-78
2023/04/05 04:41:57;;;;;;;30.45;14.13;;;;;;;-0.28;88.46;102615.56;6098482;19;20017;-78
2023/04/05 04:44:03;;;;;;;33.47;14.15;;;;;;;-0.30;89.38;102615.50;6105865;19;20014;-78
2023/04/05 04:46:13;;;;;;;26.25;12.10;;;;;;;-0.27;88.62;102609.56;6082853;19;20015;-78
2023/04/05 04:48:19;;;;;;;28.58;13.45;;;;;;;-0.26;88.82;102604.44;6107501;19;20009;-78
2023/04/05 04:50:25;;;;;;;25.65;11.95;;;;;;;-0.25;89.41;102613.06;6108722;19;20003;-79
2023/04/05 04:52:29;;;;;;;35.10;13.95;;;;;;;-0.31;89.19;102615.47;6104241;19;20014;-78
2023/04/05 04:54:35;;;;;;;25.38;13.13;;;;;;;-0.37;88.72;102612.66;6083927;19;20014;-77
2023/04/05 04:56:43;;;;;;;30.60;14.00;;;;;;;-0.36;89.06;102615.31;6104278;19;20035;-78
2023/04/05 04:58:50;;;;;;;26.45;12.55;;;;;;;-0.37;88.81;102617.81;6106073;19;20571;-77
2023/04/05 05:00:56;;;;;;;29.05;13.90;;;;;;;-0.37;89.69;102613.56;6105538;19;20368;-78
2023/04/05 05:03:10;;;;;;;30.00;13.65;;;;;;;-0.42;88.80;102615.13;6102088;19;20143;-78
2023/04/05 05:10:38;;;;;;;28.10;12.77;;;;;;;-0.39;89.57;102604.88;6050554;19;20582;-75
2023/04/05 05:13:11;;;;;;;26.40;12.48;;;;;;;-0.42;88.67;102609.03;6067329;19;20034;-75
2023/04/05 05:15:32;;;;;;;29.52;15.45;;;;;;;-0.42;88.81;102612.53;5997427;19;20014;-73
2023/04/05 05:17:39;;;;;;;31.50;14.40;;;;;;;-0.41;88.83;102611.69;6096835;19;20041;-77
2023/04/05 05:19:48;;;;;;;33.47;16.15;;;;;;;-0.39;89.42;102620.38;6104323;19;20017;-78
2023/04/05 05:21:59;;;;;;;29.02;14.27;;;;;;;-0.45;88.40;102618.47;6101221;19;20018;-78
2023/04/05 05:24:06;;;;;;;32.22;13.82;;;;;;;-0.39;89.98;102625.53;6098982;19;20014;-78
2023/04/05 05:26:11;;;;;;;27.15;13.02;;;;;;;-0.37;89.27;102626.47;6079732;19;20030;-78
2023/04/05 05:28:16;;;;;;;25.73;11.90;;;;;;;-0.36;88.51;102630.81;6081409;19;20019;-78
2023/04/05 05:30:24;;;;;;;29.70;14.57;;;;;;;-0.29;89.80;102624.13;6100846;19;20086;-79
2023/04/05 05:32:29;;;;;;;28.33;13.98;;;;;;;-0.31;88.83;102624.09;6102971;19;20389;-78
2023/04/05 05:34:36;;;;;;;32.10;13.93;;;;;;;-0.34;88.31;102634.31;6101153;19;20724;-78
2023/04/05 05:36:46;;;;;;;26.30;13.43;;;;;;;-0.35;88.52;102631.66;6102206;19;20239;-79
2023/04/05 05:38:56;;;;;;;32.88;14.75;;;;;;;-0.29;89.62;102643.09;6103181;19;20504;-78
2023/04/05 05:41:01;;;;;;;29.95;14.55;;;;;;;-0.22;89.55;102633.84;6104113;19;20337;-79
2023/04/05 05:43:09;;;;;;;33.03;17.05;;;;;;;-0.14;90.08;102634.09;6105394;19;20020;-79
2023/04/05 05:45:14;;;;;;;29.70;15.20;;;;;;;-0.11;89.48;102632.47;6082317;19;20010;-78
2023/04/05 05:47:21;;;;;;;30.48;14.23;;;;;;;0.03;89.47;102647.53;6101804;19;20074;-77
2023/04/05 05:49:27;;;;;;;32.88;14.40;;;;;;;0.15;88.77;102637.59;6106599;19;20011;-78
2023/04/05 05:51:32;;;;;;;36.47;15.48;;;;;;;0.31;88.66;102639.81;6098780;19;20121;-78
2023/04/05 05:53:40;;;;;;;30.98;14.68;;;;;;;0.45;88.58;102632.50;6097171;19;20003;-80
2023/04/05 05:55:46;;;;;;;35.25;14.98;;;;;;;0.60;87.85;102630.34;6107004;19;20389;-80
2023/04/05 05:57:51;;;;;;;26.75;14.60;;;;;;;0.76;87.61;102630.78;6109013;19;20015;-80
2023/04/05 05:59:57;;;;;;;32.40;15.07;;;;;;;0.92;86.90;102626.94;6110321;19;20022;-80
2023/04/05 06:02:01;;;;;;;33.47;17.13;;;;;;;1.07;86.44;102624.75;6106001;19;20010;-80
2023/04/05 06:04:06;;;;;;;30.35;14.90;;;;;;;1.26;86.28;102628.72;6110197;19;20011;-80
2023/04/05 06:06:11;;;;;;;39.75;16.38;;;;;;;1.43;85.78;102629.19;6082929;19;20468;-79
2023/04/05 06:08:17;;;;;;;35.75;16.13;;;;;;;1.62;85.65;102634.00;6105242;19;20006;-79
2023/04/05 06:10:26;;;;;;;38.95;17.65;;;;;;;1.83;85.25;102627.59;6090330;19;20017;-79
2023/04/05 06:12:31;;;;;;;32.97;16.90;;;;;;;2.02;84.63;102622.00;6108905;19;22474;-78
2023/04/05 06:14:35;;;;;;;41.70;17.67;;;;;;;2.22;84.17;102621.59;6106585;19;20042;-79
2023/04/05 06:16:43;;;;;;;35.65;17.30;;;;;;;2.42;83.87;102620.28;6109606;19;20011;-77
2023/04/05 06:18:48;;;;;;;50.17;19.52;;;;;;;2.62;82.85;102637.19;6081727;19;20129;-79
2023/04/05 06:20:56;;;;;;;35.35;18.30;;;;;;;2.83;82.82;102626.34;6108827;19;20237;-77
2023/04/05 06:23:04;;;;;;;45.42;18.90;;;;;;;3.02;82.21;102625.00;6105704;19;20106;-82
2023/04/05 06:25:11;;;;;;;44.17;20.85;;;;;;;3.25;82.07;102621.97;6106969;19;20007;-81
2023/04/05 06:27:24;;;;;;;45.03;18.08;;;;;;;3.43;81.49;102622.31;6112709;19;20035;-81
2023/04/05 06:29:31;;;;;;;42.00;20.20;;;;;;;3.60;80.75;102619.97;6121831;19;20016;-81
2023/04/05 06:31:37;;;;;;;42.97;20.88;;;;;;;3.71;79.93;102621.06;6116716;19;20021;-77
2023/04/05 06:33:46;;;;;;;42.83;19.80;;;;;;;3.85;79.89;102615.22;6114952;19;20011;-81
2023/04/05 06:35:51;;;;;;;43.65;21.23;;;;;;;4.05;79.07;102618.97;6119936;19;20121;-79
2023/04/05 06:37:56;;;;;;;50.80;22.67;;;;;;;4.16;77.63;102613.91;6114202;19;20558;-80
2023/04/05 06:40:02;;;;;;;50.35;21.02;;;;;;;4.26;77.35;102613.19;6095637;19;20009;-80
2023/04/05 06:42:08;;;;;;;51.58;23.10;;;;;;;4.38;76.80;102618.59;6118921;19;20018;-82
2023/04/05 06:44:15;;;;;;;43.33;21.27;;;;;;;4.45;76.34;102618.66;6115926;19;20011;-81
2023/04/05 06:46:25;;;;;;;39.92;20.40;;;;;;;4.56;76.15;102615.38;6107246;19;20017;-78
2023/04/05 06:48:36;;;;;;;46.97;20.92;;;;;;;4.57;75.42;102616.22;6103265;19;20016;-78
2023/04/05 06:50:41;;;;;;;41.55;21.10;;;;;;;4.77;75.10;102606.94;6106318;19;20079;-81
2023/04/05 06:52:49;;;;;;;48.83;19.88;;;;;;;4.90;74.09;102614.88;6109095;19;20010;-79
2023/04/05 06:55:02;;;;;;;47.67;22.02;;;;;;;5.03;73.99;102609.84;6108409;19;20074;-80
2023/04/05 06:57:08;;;;;;;41.67;19.33;;;;;;;5.11;72.78;102609.94;6113664;19;20425;-80
2023/04/05 06:59:16;;;;;;;46.45;21.45;;;;;;;5.31;72.67;102612.72;6113469;19;20003;-83
2023/04/05 07:01:25;;;;;;;40.38;20.90;;;;;;;5.39;71.44;102608.44;6115796;19;20034;-81
2023/04/05 07:03:31;;;;;;;47.83;20.35;;;;;;;5.65;71.77;102616.50;6094894;19;20026;-80
2023/04/05 07:05:36;;;;;;;37.40;19.83;;;;;;;5.71;70.67;102613.97;6112963;19;21232;-81
2023/04/05 07:07:44;;;;;;;42.95;19.58;;;;;;;5.83;69.24;102609.72;6116914;19;20030;-82
2023/04/05 07:09:49;;;;;;;42.47;19.92;;;;;;;5.99;69.50;102602.91;6126939;19;20011;-81
2023/04/05 07:11:55;;;;;;;40.75;20.45;;;;;;;6.21;69.22;102606.50;6121391;19;20018;-81
2023/04/05 07:14:00;;;;;;;46.42;21.27;;;;;;;6.33;68.96;102603.97;6127617;19;20006;-81
2023/04/05 07:16:08;;;;;;;42.33;19.77;;;;;;;6.47;66.61;102604.91;6126330;19;20010;-81
2023/04/05 07:18:14;;;;;;;40.30;19.00;;;;;;;6.50;66.99;102597.13;6115234;19;20015;-79
2023/04/05 07:20:22;;;;;;;43.40;19.48;;;;;;;6.79;65.59;102594.63;6111106;19;20007;-82
2023/04/05 07:22:31;;;;;;;41.90;19.55;;;;;;;6.99;66.13;102599.88;6115081;19;20758;-80
2023/04/05 07:24:36;;;;;;;42.38;20.75;;;;;;;7.14;64.55;102595.56;6110650;19;20054;-81
2023/04/05 07:26:41;;;;;;;39.50;20.45;;;;;;;7.40;62.91;102593.88;6110571;19;20352;-82
2023/04/05 07:28:46;;;;;;;42.97;19.58;;;;;;;7.37;63.17;102595.59;6109110;19;20038;-80
2023/04/05 07:30:51;;;;;;;44.45;20.48;;;;;;;7.73;61.60;102589.50;6104311;19;20041;-81
2023/04/05 07:32:59;;;;;;;38.90;18.73;;;;;;;7.90;61.99;102595.59;6108951;19;20014;-81
2023/04/05 07:35:04;;;;;;;39.78;18.60;;;;;;;8.22;59.99;102593.81;6085937;19;20014;-81
2023/04/05 07:37:11;;;;;;;38.17;18.80;;;;;;;8.37;60.18;102585.88;6104990;19;20006;-81
2023/04/05 07:39:17;;;;;;;29.40;17.35;;;;;;;8.51;58.47;102581.50;6085452;19;20042;-81
2023/04/05 07:41:25;;;;;;;36.75;17.27;;;;;;;8.50;58.05;102584.13;6105193;19;20011;-75
2023/04/05 07:43:29;;;;;;;31.13;17.60;;;;;;;8.57;57.04;102575.38;6103299;19;20447;-81
2023/04/05 07:45:35;;;;;;;30.55;16.15;;;;;;;8.76;57.30;102571.75;6107383;19;20050;-81
2023/04/05 07:47:44;;;;;;;32.60;16.85;;;;;;;8.59;54.99;102583.22;6106044;19;20086;-81
2023/04/05 07:49:56;;;;;;;32.65;16.30;;;;;;;8.73;52.98;102584.03;6106132;19;20011;-80
2023/04/05 07:52:01;;;;;;;29.83;16.45;;;;;;;8.62;54.06;102583.22;6104348;19;20560;-81
2023/04/05 07:54:09;;;;;;;28.90;16.70;;;;;;;8.97;52.83;102577.78;6104213;19;20017;-81
2023/04/05 07:56:15;;;;;;;34.33;15.27;;;;;;;8.91;51.83;102577.81;6104416;19;20011;-80
2023/04/05 07:58:19;;;;;;;33.35;17.23;;;;;;;9.09;52.71;102580.34;6104691;19;20039;-81
2023/04/05 08:00:52;;;;;;;29.25;16.08;;;;;;;9.45;52.58;102579.22;6105322;19;20015;-72
2023/04/05 08:03:42;;;;;;;28.67;15.60;;;;;;;9.74;50.77;102569.31;6030125;19;20688;-73
2023/04/05 08:06:24;;;;;;;29.73;15.00;;;;;;;10.03;50.33;102567.31;5955396;19;20461;-71
2023/04/05 08:08:58;;;;;;;27.35;14.32;;;;;;;10.04;48.04;102569.03;6033074;19;20022;-71
2023/04/05 08:11:36;;;;;;;26.45;14.07;;;;;;;10.04;48.59;102563.78;6055457;19;20003;-71
2023/04/05 08:13:53;;;;;;;28.55;15.00;;;;;;;10.39;49.55;102570.41;6024539;19;20095;-72
2023/04/05 08:19:16;;;;;;;28.60;15.23;;;;;;;10.72;47.17;102569.13;6018405;19;20478;-72
2023/04/05 08:22:21;;;;;;;29.00;15.70;;;;;;;10.81;45.76;102560.22;6058351;19;20503;-72
2023/04/05 08:24:37;;;;;;;24.23;14.90;;;;;;;10.84;45.17;102556.69;6058148;19;20082;-73
2023/04/05 08:27:38;;;;;;;25.75;13.27;;;;;;;10.87;44.29;102556.66;6063199;19;20037;-72
2023/04/05 08:39:20;;;;;;;26.60;13.15;;;;;;;11.37;41.76;102557.63;6073708;19;20407;-72
2023/04/05 08:44:22;;;;;;;29.50;13.50;;;;;;;11.47;43.23;102553.97;6006028;19;20046;-73
2023/04/05 08:46:57;;;;;;;;;;;;;;;;;;;;;
2023/04/05 08:49:15;;;;;;;27.40;13.48;;;;;;;11.27;40.48;102546.41;6073355;19;20013;-71
2023/04/05 08:51:58;;;;;;;;;;;;;;;;;;;;;
2023/04/05 08:54:44;;;;;;;29.17;13.82;;;;;;;11.76;39.81;102545.56;6097262;19;20014;-72
2023/04/05 08:57:31;;;;;;;30.00;13.55;;;;;;;11.89;39.39;102548.00;6077775;19;20091;-73
2023/04/05 08:59:40;;;;;;;29.52;12.88;;;;;;;11.64;39.25;102546.66;6000727;19;20463;-73
2023/04/05 09:02:03;;;;;;;22.90;12.07;;;;;;;11.57;38.30;102546.78;6074092;19;20071;-72
2023/04/05 09:04:26;;;;;;;26.25;12.52;;;;;;;11.48;38.50;102544.28;6033893;19;20018;-71
2023/04/05 09:06:35;;;;;;;24.83;12.02;;;;;;;11.49;39.23;102551.31;6072650;19;20003;-72
2023/04/05 09:08:43;;;;;;;26.98;12.18;;;;;;;11.41;39.08;102539.16;6077333;19;20549;-72
2023/04/05 09:10:53;;;;;;;31.05;13.15;;;;;;;11.33;39.04;102546.31;6078960;19;20011;-72
2023/04/05 09:13:33;;;;;;;26.05;11.82;;;;;;;12.01;38.53;102537.25;6082280;19;20015;-72
2023/04/05 09:18:30;;;;;;;25.35;12.88;;;;;;;11.97;37.33;102546.09;6032327;19;20007;-79
2023/04/05 09:20:36;;;;;;;27.42;12.35;;;;;;;11.95;37.62;102542.59;6108252;19;20034;-79
2023/04/05 09:22:48;;;;;;;24.85;12.52;;;;;;;12.47;37.58;102546.84;6117284;19;20181;-81
2023/04/05 09:24:53;;;;;;;29.00;12.20;;;;;;;12.63;36.27;102537.69;6114557;19;20050;-79
2023/04/05 09:27:09;;;;;;;30.70;12.70;;;;;;;12.33;37.46;102541.00;6112836;19;20028;-78
2023/04/05 09:29:30;;;;;;;27.27;12.65;;;;;;;12.24;37.42;102536.78;6113481;19;20775;-80
2023/04/05 09:31:37;;;;;;;27.63;11.85;;;;;;;12.65;37.11;102535.91;6085319;19;20002;-78
2023/04/05 09:33:48;;;;;;;24.70;13.18;;;;;;;12.44;36.54;102528.47;6113609;19;20455;-72
2023/04/05 09:35:56;;;;;;;29.33;13.10;;;;;;;12.46;36.55;102530.16;6101277;19;20466;-71
2023/04/05 09:38:13;;;;;;;27.80;12.63;;;;;;;12.17;37.25;102533.41;6075513;19;20016;-72
2023/04/05 09:44:39;;;;;;;24.25;12.50;;;;;;;12.62;35.92;102525.41;6015704;19;20028;-72
2023/04/05 09:50:53;;;;;;;32.00;13.05;;;;;;;12.64;36.25;102521.00;5964182;19;20087;-72
2023/04/05 09:57:15;;;;;;;22.17;12.02;;;;;;;12.52;36.14;102523.88;6022257;19;20023;-72
2023/04/05 10:00:09;;;;;;;28.05;12.13;;;;;;;12.23;36.54;102519.22;5990309;19;20013;-72
2023/04/05 10:05:23;;;;;;;23.25;11.52;;;;;;;13.15;34.74;102518.03;6096687;19;20351;-72
2023/04/05 10:42:52;;;;;;;21.98;11.57;;;;;;;12.57;33.78;102506.19;5995399;19;20015;-72
2023/04/05 10:45:50;;;;;;;24.17;11.15;;;;;;;13.06;33.94;102494.50;6033011;19;20026;-73
2023/04/05 10:51:38;;;;;;;18.05;9.63;;;;;;;13.47;33.21;102492.63;5998429;19;20106;-77
2023/04/05 10:53:43;;;;;;;23.08;11.40;;;;;;;13.37;32.45;102489.34;6094209;19;20011;-77
2023/04/05 10:55:59;;;;;;;24.63;12.20;;;;;;;13.57;32.72;102487.97;6101440;19;20006;-77
2023/04/05 10:58:05;;;;;;;23.70;10.80;;;;;;;13.34;32.69;102480.63;6095559;19;20086;-77
2023/04/05 11:00:15;;;;;;;21.13;10.82;;;;;;;13.28;32.13;102478.16;6098767;19;20015;-77
2023/04/05 11:02:22;;;;;;;27.38;11.60;;;;;;;13.72;31.64;102486.69;6099821;19;20018;-83
2023/04/05 11:04:29;;;;;;;22.23;10.90;;;;;;;13.47;32.70;102474.13;6102025;19;20190;-82
2023/04/05 11:06:37;;;;;;;25.67;11.18;;;;;;;13.87;31.84;102477.47;6107617;19;19999;-80
2023/04/05 11:08:45;;;;;;;23.15;12.00;;;;;;;13.52;32.78;102477.50;6111046;19;20014;-81
2023/04/05 11:10:55;;;;;;;20.50;10.48;;;;;;;13.43;32.11;102479.53;6108832;19;20527;-80
2023/04/05 11:13:15;;;;;;;18.20;9.48;;;;;;;13.60;32.48;102472.88;6108162;19;20051;-80
2023/04/05 11:15:39;;;;;;;19.45;10.18;;;;;;;13.97;30.96;102465.72;6109423;19;20007;-79
2023/04/05 11:17:44;;;;;;;22.77;10.98;;;;;;;13.70;31.49;102456.81;6110404;19;20023;-80
2023/04/05 11:19:55;;;;;;;22.35;11.07;;;;;;;13.59;31.71;102465.88;6111329;19;20017;-79
2023/04/05 11:22:05;;;;;;;21.05;11.93;;;;;;;13.44;29.64;102468.06;6112198;19;20017;-81
2023/04/05 11:24:16;;;;;;;19.23;10.07;;;;;;;13.87;30.65;102457.19;6112991;19;20010;-80
2023/04/05 11:26:23;;;;;;;21.48;10.57;;;;;;;13.96;30.97;102458.72;6112647;19;20362;-83
2023/04/05 11:28:31;;;;;;;26.98;12.18;;;;;;;14.12;32.13;102454.69;6111270;19;20011;-83
2023/04/05 11:30:50;;;;;;;22.52;12.13;;;;;;;14.23;32.47;102459.66;6108460;19;20015;-82
2023/04/05 11:32:56;;;;;;;21.05;11.48;;;;;;;14.46;30.72;102451.91;6107794;19;20013;-81
2023/04/05 11:35:02;;;;;;;20.95;10.93;;;;;;;14.77;31.44;102450.97;6107813;19;20046;-82
2023/04/05 11:37:13;;;;;;;21.48;10.48;;;;;;;14.98;31.75;102451.16;6110282;19;20598;-82
2023/04/05 11:39:30;;;;;;;23.30;10.85;;;;;;;14.81;31.79;102452.59;6111488;19;20356;-82
2023/04/05 11:41:35;;;;;;;21.90;11.27;;;;;;;14.30;31.81;102453.28;6111153;19;20007;-81
2023/04/05 11:43:42;;;;;;;20.15;11.27;;;;;;;14.44;31.55;102445.78;6110895;19;20011;-81
2023/04/05 11:45:49;;;;;;;19.75;10.05;;;;;;;14.42;30.35;102449.41;6099798;19;20019;-82
2023/04/05 11:47:55;;;;;;;19.73;10.07;;;;;;;14.29;29.68;102448.91;6101928;19;20006;-81
2023/04/05 11:50:02;;;;;;;19.48;9.95;;;;;;;14.83;30.23;102437.53;6102361;19;20613;-81
2023/04/05 11:52:18;;;;;;;19.00;10.00;;;;;;;14.84;27.88;102439.25;6103508;19;20105;-80
2023/04/05 11:54:33;;;;;;;18.63;9.60;;;;;;;14.49;27.35;102433.28;6113103;19;20578;-81
2023/04/05 11:56:38;;;;;;;20.27;10.35;;;;;;;14.49;28.88;102430.66;6113950;19;20023;-81
2023/04/05 11:58:43;;;;;;;20.30;10.55;;;;;;;14.73;31.04;102428.16;6113005;19;20015;-81